sensor_id;sensor_type;location;lat;lon;timestamp;P1;durP1;ratioP1;P2;durP2;ratioP2
5678;SDS011;2862;52.560;13.566;2023-03-01T00:08:44;28.83;;;7.13;;
5678;SDS011;2862;52.560;13.566;2023-03-01T00:18:48;24.93;;;6.60;;
5678;SDS011;2862;52.560;13.566;2023-03-01T00:28:52;29.27;;;9.17;;
5678;SDS011;2862;52.560;13.566;2023-03-01T00:38:58;22.63;;;5.13;;
5678;SDS011;2862;52.560;13.566;2023-03-01T00:49:00;28.40;;;7.87;;
5678;SDS011;2862;52.560;13.566;2023-03-01T00:59:05;24.50;;;7.27;;
5678;SDS011;2862;52.560;13.566;2023-03-01T01:09:08;29.13;;;7.80;;
5678;SDS011;2862;52.560;13.566;2023-03-01T01:19:20;22.43;;;6.13;;
5678;SDS011;2862;52.560;13.566;2023-03-01T01:29:23;20.30;;;4.97;;
5678;SDS011;2862;52.560;13.566;2023-03-01T01:39:28;23.73;;;5.50;;
5678;SDS011;2862;52.560;13.566;2023-03-01T01:49:32;21.47;;;4.83;;
5678;SDS011;2862;52.560;13.566;2023-03-01T01:59:41;18.90;;;3.47;;
5678;SDS011;2862;52.560;13.566;2023-03-01T02:09:49;26.90;;;4.77;;
5678;SDS011;2862;52.560;13.566;2023-03-01T02:19:59;20.57;;;4.43;;
5678;SDS011;2862;52.560;13.566;2023-03-01T02:30:16;23.23;;;5.30;;
5678;SDS011;2862;52.560;13.566;2023-03-01T02:40:21;25.30;;;5.37;;
5678;SDS011;2862;52.560;13.566;2023-03-01T02:50:31;22.30;;;4.87;;
5678;SDS011;2862;52.560;13.566;2023-03-01T03:00:50;22.90;;;4.80;;
5678;SDS011;2862;52.560;13.566;2023-03-01T03:10:55;22.83;;;5.10;;
5678;SDS011;2862;52.560;13.566;2023-03-01T03:20:58;17.30;;;3.73;;
5678;SDS011;2862;52.560;13.566;2023-03-01T03:31:02;21.07;;;4.67;;
5678;SDS011;2862;52.560;13.566;2023-03-01T03:41:09;22.50;;;4.93;;
5678;SDS011;2862;52.560;13.566;2023-03-01T03:51:14;21.30;;;5.07;;
5678;SDS011;2862;52.560;13.566;2023-03-01T04:01:19;23.63;;;4.93;;
5678;SDS011;2862;52.560;13.566;2023-03-01T04:11:23;21.20;;;4.70;;
5678;SDS011;2862;52.560;13.566;2023-03-01T04:21:28;24.87;;;5.60;;
5678;SDS011;2862;52.560;13.566;2023-03-01T04:31:33;24.27;;;5.10;;
5678;SDS011;2862;52.560;13.566;2023-03-01T04:41:36;26.67;;;6.53;;
5678;SDS011;2862;52.560;13.566;2023-03-01T04:51:42;35.07;;;11.70;;
5678;SDS011;2862;52.560;13.566;2023-03-01T05:01:46;20.63;;;5.07;;
5678;SDS011;2862;52.560;13.566;2023-03-01T05:11:49;24.47;;;6.47;;
5678;SDS011;2862;52.560;13.566;2023-03-01T05:21:53;22.00;;;6.20;;
5678;SDS011;2862;52.560;13.566;2023-03-01T05:32:08;27.63;;;8.00;;
5678;SDS011;2862;52.560;13.566;2023-03-01T05:42:16;33.87;;;9.30;;
5678;SDS011;2862;52.560;13.566;2023-03-01T05:52:21;30.43;;;8.57;;
5678;SDS011;2862;52.560;13.566;2023-03-01T06:02:24;39.33;;;9.20;;
5678;SDS011;2862;52.560;13.566;2023-03-01T06:12:30;35.07;;;10.53;;
5678;SDS011;2862;52.560;13.566;2023-03-01T06:22:34;29.13;;;8.60;;
5678;SDS011;2862;52.560;13.566;2023-03-01T06:32:38;27.83;;;7.77;;
5678;SDS011;2862;52.560;13.566;2023-03-01T06:42:47;47.60;;;16.27;;
5678;SDS011;2862;52.560;13.566;2023-03-01T06:52:56;25.27;;;7.93;;
5678;SDS011;2862;52.560;13.566;2023-03-01T07:03:00;45.27;;;17.60;;
5678;SDS011;2862;52.560;13.566;2023-03-01T07:13:05;41.33;;;13.77;;
5678;SDS011;2862;52.560;13.566;2023-03-01T07:23:09;43.37;;;16.87;;
5678;SDS011;2862;52.560;13.566;2023-03-01T07:33:13;39.20;;;17.67;;
5678;SDS011;2862;52.560;13.566;2023-03-01T07:43:16;35.70;;;14.27;;
5678;SDS011;2862;52.560;13.566;2023-03-01T07:53:21;42.30;;;16.43;;
5678;SDS011;2862;52.560;13.566;2023-03-01T08:03:23;33.10;;;13.03;;
5678;SDS011;2862;52.560;13.566;2023-03-01T08:13:29;45.10;;;17.10;;
5678;SDS011;2862;52.560;13.566;2023-03-01T08:23:32;30.37;;;9.23;;
5678;SDS011;2862;52.560;13.566;2023-03-01T08:33:37;30.73;;;8.93;;
5678;SDS011;2862;52.560;13.566;2023-03-01T08:43:39;25.20;;;6.07;;
5678;SDS011;2862;52.560;13.566;2023-03-01T08:53:44;25.67;;;7.70;;
5678;SDS011;2862;52.560;13.566;2023-03-01T09:03:47;23.77;;;4.83;;
5678;SDS011;2862;52.560;13.566;2023-03-01T09:13:51;25.67;;;5.90;;
5678;SDS011;2862;52.560;13.566;2023-03-01T09:23:55;21.77;;;4.93;;
5678;SDS011;2862;52.560;13.566;2023-03-01T09:34:01;19.67;;;3.03;;
5678;SDS011;2862;52.560;13.566;2023-03-01T09:44:05;17.83;;;3.83;;
5678;SDS011;2862;52.560;13.566;2023-03-01T09:54:16;20.63;;;1.60;;
5678;SDS011;2862;52.560;13.566;2023-03-01T10:04:26;15.53;;;1.20;;
5678;SDS011;2862;52.560;13.566;2023-03-01T10:14:38;22.53;;;2.37;;
5678;SDS011;2862;52.560;13.566;2023-03-01T10:24:45;21.00;;;2.30;;
5678;SDS011;2862;52.560;13.566;2023-03-01T10:34:50;19.27;;;2.30;;
5678;SDS011;2862;52.560;13.566;2023-03-01T10:44:53;23.40;;;4.67;;
5678;SDS011;2862;52.560;13.566;2023-03-01T10:54:58;19.30;;;3.00;;
5678;SDS011;2862;52.560;13.566;2023-03-01T11:05:16;21.80;;;3.57;;
5678;SDS011;2862;52.560;13.566;2023-03-01T11:15:24;20.20;;;3.37;;
5678;SDS011;2862;52.560;13.566;2023-03-01T11:25:29;19.70;;;2.67;;
5678;SDS011;2862;52.560;13.566;2023-03-01T11:35:37;26.33;;;5.40;;
5678;SDS011;2862;52.560;13.566;2023-03-01T11:45:55;31.67;;;9.93;;
5678;SDS011;2862;52.560;13.566;2023-03-01T11:56:24;17.10;;;2.37;;
5678;SDS011;2862;52.560;13.566;2023-03-01T12:06:39;16.67;;;1.63;;
5678;SDS011;2862;52.560;13.566;2023-03-01T12:17:11;15.30;;;1.43;;
5678;SDS011;2862;52.560;13.566;2023-03-01T12:27:36;15.83;;;1.00;;
5678;SDS011;2862;52.560;13.566;2023-03-01T12:37:57;16.07;;;1.23;;
5678;SDS011;2862;52.560;13.566;2023-03-01T12:48:18;15.23;;;1.50;;
5678;SDS011;2862;52.560;13.566;2023-03-01T12:58:35;15.03;;;1.17;;
5678;SDS011;2862;52.560;13.566;2023-03-01T13:08:52;15.60;;;1.07;;
5678;SDS011;2862;52.560;13.566;2023-03-01T13:19:10;17.10;;;1.03;;
5678;SDS011;2862;52.560;13.566;2023-03-01T13:29:25;14.17;;;1.07;;
5678;SDS011;2862;52.560;13.566;2023-03-01T13:39:31;15.70;;;1.40;;
5678;SDS011;2862;52.560;13.566;2023-03-01T13:49:43;18.23;;;1.87;;
5678;SDS011;2862;52.560;13.566;2023-03-01T13:59:50;15.23;;;0.83;;
5678;SDS011;2862;52.560;13.566;2023-03-01T14:09:54;14.63;;;0.97;;
5678;SDS011;2862;52.560;13.566;2023-03-01T14:20:00;13.00;;;0.80;;
5678;SDS011;2862;52.560;13.566;2023-03-01T14:30:10;15.33;;;0.70;;
5678;SDS011;2862;52.560;13.566;2023-03-01T14:40:22;16.50;;;0.90;;
5678;SDS011;2862;52.560;13.566;2023-03-01T14:50:29;15.33;;;0.83;;
5678;SDS011;2862;52.560;13.566;2023-03-01T15:00:34;15.63;;;0.90;;
5678;SDS011;2862;52.560;13.566;2023-03-01T15:10:38;13.53;;;0.60;;
5678;SDS011;2862;52.560;13.566;2023-03-01T15:20:45;14.23;;;0.80;;
5678;SDS011;2862;52.560;13.566;2023-03-01T15:30:52;14.70;;;0.70;;
5678;SDS011;2862;52.560;13.566;2023-03-01T15:40:59;13.73;;;0.53;;
5678;SDS011;2862;52.560;13.566;2023-03-01T15:51:04;14.13;;;0.60;;
5678;SDS011;2862;52.560;13.566;2023-03-01T16:01:10;14.77;;;1.13;;
5678;SDS011;2862;52.560;13.566;2023-03-01T16:11:16;16.53;;;1.50;;
5678;SDS011;2862;52.560;13.566;2023-03-01T16:21:23;14.50;;;1.03;;
5678;SDS011;2862;52.560;13.566;2023-03-01T16:31:30;17.43;;;1.30;;
5678;SDS011;2862;52.560;13.566;2023-03-01T16:41:39;15.03;;;0.80;;
5678;SDS011;2862;52.560;13.566;2023-03-01T16:51:42;21.60;;;4.50;;
5678;SDS011;2862;52.560;13.566;2023-03-01T17:01:47;17.53;;;2.40;;
5678;SDS011;2862;52.560;13.566;2023-03-01T17:11:49;28.80;;;8.20;;
5678;SDS011;2862;52.560;13.566;2023-03-01T17:21:54;15.27;;;1.70;;
5678;SDS011;2862;52.560;13.566;2023-03-01T17:31:57;16.67;;;1.53;;
5678;SDS011;2862;52.560;13.566;2023-03-01T17:42:01;25.10;;;5.80;;
5678;SDS011;2862;52.560;13.566;2023-03-01T17:52:07;21.97;;;2.50;;
5678;SDS011;2862;52.560;13.566;2023-03-01T18:02:12;21.37;;;3.00;;
5678;SDS011;2862;52.560;13.566;2023-03-01T18:12:23;21.47;;;3.90;;
5678;SDS011;2862;52.560;13.566;2023-03-01T18:22:28;20.83;;;3.60;;
5678;SDS011;2862;52.560;13.566;2023-03-01T18:32:30;17.30;;;2.60;;
5678;SDS011;2862;52.560;13.566;2023-03-01T18:42:35;28.13;;;6.87;;
5678;SDS011;2862;52.560;13.566;2023-03-01T18:52:38;21.60;;;4.80;;
5678;SDS011;2862;52.560;13.566;2023-03-01T19:02:42;23.30;;;6.03;;
5678;SDS011;2862;52.560;13.566;2023-03-01T19:12:45;25.30;;;5.07;;
5678;SDS011;2862;52.560;13.566;2023-03-01T19:22:53;24.50;;;5.60;;
5678;SDS011;2862;52.560;13.566;2023-03-01T19:32:56;25.70;;;5.07;;
5678;SDS011;2862;52.560;13.566;2023-03-01T19:43:01;40.80;;;11.93;;
5678;SDS011;2862;52.560;13.566;2023-03-01T19:53:04;30.90;;;8.27;;
5678;SDS011;2862;52.560;13.566;2023-03-01T20:03:10;31.40;;;8.10;;
5678;SDS011;2862;52.560;13.566;2023-03-01T20:13:14;29.67;;;9.07;;
5678;SDS011;2862;52.560;13.566;2023-03-01T20:23:24;30.03;;;9.03;;
5678;SDS011;2862;52.560;13.566;2023-03-01T20:33:27;36.17;;;9.57;;
5678;SDS011;2862;52.560;13.566;2023-03-01T20:43:31;32.67;;;7.33;;
5678;SDS011;2862;52.560;13.566;2023-03-01T20:53:34;25.87;;;6.47;;
5678;SDS011;2862;52.560;13.566;2023-03-01T21:03:39;28.53;;;9.47;;
5678;SDS011;2862;52.560;13.566;2023-03-01T21:13:45;48.60;;;15.30;;
5678;SDS011;2862;52.560;13.566;2023-03-01T21:23:49;40.30;;;11.53;;
5678;SDS011;2862;52.560;13.566;2023-03-01T21:33:52;41.97;;;11.07;;
5678;SDS011;2862;52.560;13.566;2023-03-01T21:43:58;38.80;;;11.07;;
5678;SDS011;2862;52.560;13.566;2023-03-01T21:54:03;30.67;;;9.10;;
5678;SDS011;2862;52.560;13.566;2023-03-01T22:04:07;34.50;;;11.43;;
5678;SDS011;2862;52.560;13.566;2023-03-01T22:14:11;35.67;;;9.57;;
5678;SDS011;2862;52.560;13.566;2023-03-01T22:24:16;30.67;;;11.40;;
5678;SDS011;2862;52.560;13.566;2023-03-01T22:34:21;30.37;;;9.93;;
5678;SDS011;2862;52.560;13.566;2023-03-01T22:44:25;35.60;;;9.70;;
5678;SDS011;2862;52.560;13.566;2023-03-01T22:54:28;31.40;;;10.10;;
5678;SDS011;2862;52.560;13.566;2023-03-01T23:04:32;30.43;;;8.90;;
5678;SDS011;2862;52.560;13.566;2023-03-01T23:14:35;28.73;;;8.80;;
5678;SDS011;2862;52.560;13.566;2023-03-01T23:24:39;31.97;;;9.40;;
5678;SDS011;2862;52.560;13.566;2023-03-01T23:34:42;25.90;;;6.40;;
5678;SDS011;2862;52.560;13.566;2023-03-01T23:44:47;27.33;;;6.50;;
5678;SDS011;2862;52.560;13.566;2023-03-01T23:54:50;24.10;;;5.50;;
